sensor_id;sensor_type;location;lat;lon;timestamp;pressure;altitude;pressure_sealevel;temperature;humidity
37972;BME280;23794;48.234;8.344;2023-06-14T00:00:41;93853.91;;;11.66;47.44
37972;BME280;23794;48.234;8.344;2023-06-14T00:03:10;93842.81;;;11.73;47.60
37972;BME280;23794;48.234;8.344;2023-06-14T00:05:38;93850.41;;;11.62;47.43
37972;BME280;23794;48.234;8.344;2023-06-14T00:08:09;93845.06;;;11.55;48.43
37972;BME280;23794;48.234;8.344;2023-06-14T00:10:37;93841.19;;;11.52;48.99
37972;BME280;23794;48.234;8.344;2023-06-14T00:13:03;93836.53;;;11.49;48.87
37972;BME280;23794;48.234;8.344;2023-06-14T00:15:31;93834.94;;;11.51;48.81
37972;BME280;23794;48.234;8.344;2023-06-14T00:17:57;93834.50;;;11.53;48.50
37972;BME280;23794;48.234;8.344;2023-06-14T00:20:28;93839.56;;;11.55;48.52
37972;BME280;23794;48.234;8.344;2023-06-14T00:22:57;93836.47;;;11.52;48.19
37972;BME280;23794;48.234;8.344;2023-06-14T00:25:24;93833.00;;;11.48;48.26
37972;BME280;23794;48.234;8.344;2023-06-14T00:27:56;93826.13;;;11.36;48.90
37972;BME280;23794;48.234;8.344;2023-06-14T00:30:23;93825.53;;;11.25;49.26
37972;BME280;23794;48.234;8.344;2023-06-14T00:32:50;93825.84;;;11.31;49.27
37972;BME280;23794;48.234;8.344;2023-06-14T00:35:18;93828.16;;;11.32;49.24
37972;BME280;23794;48.234;8.344;2023-06-14T00:37:44;93823.16;;;11.27;49.41
37972;BME280;23794;48.234;8.344;2023-06-14T00:40:11;93825.09;;;11.27;49.49
37972;BME280;23794;48.234;8.344;2023-06-14T00:42:38;93819.56;;;11.30;49.18
37972;BME280;23794;48.234;8.344;2023-06-14T00:45:05;93830.22;;;11.25;49.87
37972;BME280;23794;48.234;8.344;2023-06-14T00:47:32;93827.53;;;11.21;49.01
37972;BME280;23794;48.234;8.344;2023-06-14T00:50:00;93825.75;;;11.11;49.63
37972;BME280;23794;48.234;8.344;2023-06-14T00:52:27;93828.44;;;11.14;49.53
37972;BME280;23794;48.234;8.344;2023-06-14T00:54:54;93833.22;;;11.07;49.51
37972;BME280;23794;48.234;8.344;2023-06-14T00:57:21;93826.31;;;10.95;49.66
37972;BME280;23794;48.234;8.344;2023-06-14T00:59:48;93826.34;;;10.91;50.46
37972;BME280;23794;48.234;8.344;2023-06-14T01:02:15;93820.03;;;10.98;50.32
37972;BME280;23794;48.234;8.344;2023-06-14T01:04:44;93829.78;;;11.02;50.14
37972;BME280;23794;48.234;8.344;2023-06-14T01:15:09;93826.91;;;10.79;50.39
37972;BME280;23794;48.234;8.344;2023-06-14T01:17:37;93834.44;;;10.71;50.74
37972;BME280;23794;48.234;8.344;2023-06-14T01:20:09;93834.53;;;10.64;50.94
37972;BME280;23794;48.234;8.344;2023-06-14T01:22:50;93833.00;;;10.63;51.15
37972;BME280;23794;48.234;8.344;2023-06-14T01:25:19;93834.19;;;10.62;51.12
37972;BME280;23794;48.234;8.344;2023-06-14T01:28:05;93835.28;;;10.68;50.62
37972;BME280;23794;48.234;8.344;2023-06-14T01:30:41;93826.63;;;10.69;50.83
37972;BME280;23794;48.234;8.344;2023-06-14T01:33:16;93828.97;;;10.71;50.70
37972;BME280;23794;48.234;8.344;2023-06-14T01:35:48;93838.28;;;10.46;51.36
37972;BME280;23794;48.234;8.344;2023-06-14T01:38:15;93836.00;;;10.37;50.90
37972;BME280;23794;48.234;8.344;2023-06-14T01:40:43;93842.31;;;10.34;50.99
37972;BME280;23794;48.234;8.344;2023-06-14T01:43:14;93845.81;;;10.35;51.85
37972;BME280;23794;48.234;8.344;2023-06-14T01:45:42;93838.75;;;10.37;51.72
37972;BME280;23794;48.234;8.344;2023-06-14T01:48:11;93844.22;;;10.37;51.62
37972;BME280;23794;48.234;8.344;2023-06-14T01:50:39;93839.31;;;10.21;51.07
37972;BME280;23794;48.234;8.344;2023-06-14T01:53:10;93840.50;;;10.20;52.45
37972;BME280;23794;48.234;8.344;2023-06-14T01:55:37;93844.41;;;10.19;52.03
37972;BME280;23794;48.234;8.344;2023-06-14T01:58:06;93847.50;;;10.25;51.90
37972;BME280;23794;48.234;8.344;2023-06-14T02:00:32;93842.03;;;10.25;51.79
37972;BME280;23794;48.234;8.344;2023-06-14T02:02:59;93844.72;;;10.29;51.14
37972;BME280;23794;48.234;8.344;2023-06-14T02:05:26;93849.06;;;10.26;50.82
37972;BME280;23794;48.234;8.344;2023-06-14T02:07:53;93844.41;;;10.19;51.33
37972;BME280;23794;48.234;8.344;2023-06-14T02:10:20;93852.28;;;10.17;52.34
37972;BME280;23794;48.234;8.344;2023-06-14T02:12:47;93857.78;;;10.14;52.60
37972;BME280;23794;48.234;8.344;2023-06-14T02:15:14;93855.91;;;10.07;52.17
37972;BME280;23794;48.234;8.344;2023-06-14T02:17:45;93852.09;;;9.97;52.09
37972;BME280;23794;48.234;8.344;2023-06-14T02:20:17;93854.00;;;10.00;52.04
37972;BME280;23794;48.234;8.344;2023-06-14T02:22:46;93852.13;;;9.93;52.68
37972;BME280;23794;48.234;8.344;2023-06-14T02:25:14;93849.00;;;9.91;51.85
37972;BME280;23794;48.234;8.344;2023-06-14T02:27:41;93847.91;;;9.85;52.36
37972;BME280;23794;48.234;8.344;2023-06-14T02:30:10;93857.22;;;9.91;52.36
37972;BME280;23794;48.234;8.344;2023-06-14T02:32:37;93856.50;;;9.84;52.93
37972;BME280;23794;48.234;8.344;2023-06-14T02:35:04;93848.31;;;9.84;51.98
37972;BME280;23794;48.234;8.344;2023-06-14T02:37:31;93851.84;;;9.81;52.63
37972;BME280;23794;48.234;8.344;2023-06-14T02:39:58;93851.03;;;9.84;52.25
37972;BME280;23794;48.234;8.344;2023-06-14T02:42:25;93851.81;;;9.84;52.59
37972;BME280;23794;48.234;8.344;2023-06-14T02:44:52;93852.63;;;9.77;52.54
37972;BME280;23794;48.234;8.344;2023-06-14T02:47:20;93853.06;;;9.76;52.60
37972;BME280;23794;48.234;8.344;2023-06-14T02:49:46;93849.94;;;9.74;52.83
37972;BME280;23794;48.234;8.344;2023-06-14T02:55:33;93849.16;;;9.73;53.19
37972;BME280;23794;48.234;8.344;2023-06-14T02:58:06;93855.06;;;9.72;53.14
37972;BME280;23794;48.234;8.344;2023-06-14T03:00:33;93848.78;;;9.71;53.03
37972;BME280;23794;48.234;8.344;2023-06-14T03:03:01;93855.09;;;9.65;53.30
37972;BME280;23794;48.234;8.344;2023-06-14T03:05:31;93850.88;;;9.56;53.10
37972;BME280;23794;48.234;8.344;2023-06-14T03:07:57;93853.31;;;9.43;53.08
37972;BME280;23794;48.234;8.344;2023-06-14T03:10:24;93851.31;;;9.48;53.89
37972;BME280;23794;48.234;8.344;2023-06-14T03:12:55;93855.16;;;9.54;53.85
37972;BME280;23794;48.234;8.344;2023-06-14T03:15:22;93859.81;;;9.60;53.77
37972;BME280;23794;48.234;8.344;2023-06-14T03:17:51;93855.91;;;9.61;53.65
37972;BME280;23794;48.234;8.344;2023-06-14T03:20:20;93868.41;;;9.62;53.56
37972;BME280;23794;48.234;8.344;2023-06-14T03:22:49;93860.63;;;9.54;53.82
37972;BME280;23794;48.234;8.344;2023-06-14T03:25:16;93860.69;;;9.46;53.66
37972;BME280;23794;48.234;8.344;2023-06-14T03:27:46;93871.31;;;9.34;54.06
37972;BME280;23794;48.234;8.344;2023-06-14T03:30:12;93870.91;;;9.35;54.54
37972;BME280;23794;48.234;8.344;2023-06-14T03:32:42;93869.00;;;9.28;54.96
37972;BME280;23794;48.234;8.344;2023-06-14T03:35:10;93870.53;;;9.33;54.28
37972;BME280;23794;48.234;8.344;2023-06-14T03:37:45;93877.53;;;9.41;54.46
37972;BME280;23794;48.234;8.344;2023-06-14T03:40:13;93875.19;;;9.43;54.53
37972;BME280;23794;48.234;8.344;2023-06-14T03:42:44;93877.09;;;9.46;53.87
37972;BME280;23794;48.234;8.344;2023-06-14T03:45:11;93875.19;;;9.43;54.14
37972;BME280;23794;48.234;8.344;2023-06-14T03:47:38;93880.25;;;9.45;54.32
37972;BME280;23794;48.234;8.344;2023-06-14T03:50:05;93879.84;;;9.46;54.43
37972;BME280;23794;48.234;8.344;2023-06-14T03:52:33;93890.75;;;9.50;54.48
37972;BME280;23794;48.234;8.344;2023-06-14T03:55:00;93889.94;;;9.57;54.28
37972;BME280;23794;48.234;8.344;2023-06-14T03:57:31;93895.41;;;9.53;54.52
37972;BME280;23794;48.234;8.344;2023-06-14T03:59:59;93898.91;;;9.54;54.06
37972;BME280;23794;48.234;8.344;2023-06-14T04:02:27;93893.84;;;9.52;54.51
37972;BME280;23794;48.234;8.344;2023-06-14T04:04:58;93895.84;;;9.48;54.58
37972;BME280;23794;48.234;8.344;2023-06-14T04:07:28;93900.47;;;9.55;54.78
37972;BME280;23794;48.234;8.344;2023-06-14T04:09:55;93900.41;;;9.62;54.31
37972;BME280;23794;48.234;8.344;2023-06-14T04:12:22;93899.66;;;9.61;54.50
37972;BME280;23794;48.234;8.344;2023-06-14T04:14:48;93899.56;;;9.72;54.12
37972;BME280;23794;48.234;8.344;2023-06-14T04:17:15;93899.56;;;9.72;54.27
37972;BME280;23794;48.234;8.344;2023-06-14T04:19:43;93912.50;;;9.68;54.46
37972;BME280;23794;48.234;8.344;2023-06-14T04:22:13;93910.97;;;9.64;55.06
37972;BME280;23794;48.234;8.344;2023-06-14T04:24:40;93909.84;;;9.57;55.31
37972;BME280;23794;48.234;8.344;2023-06-14T04:27:10;93916.81;;;9.66;55.48
37972;BME280;23794;48.234;8.344;2023-06-14T04:29:37;93915.59;;;9.70;56.40
37972;BME280;23794;48.234;8.344;2023-06-14T04:32:09;93911.72;;;9.68;55.79
37972;BME280;23794;48.234;8.344;2023-06-14T04:34:37;93918.72;;;9.72;55.59
37972;BME280;23794;48.234;8.344;2023-06-14T04:37:07;93919.81;;;9.82;54.84
37972;BME280;23794;48.234;8.344;2023-06-14T04:39:37;93916.69;;;9.84;55.74
37972;BME280;23794;48.234;8.344;2023-06-14T04:42:04;93910.41;;;9.87;55.19
37972;BME280;23794;48.234;8.344;2023-06-14T04:44:33;93916.63;;;9.91;56.37
37972;BME280;23794;48.234;8.344;2023-06-14T04:47:02;93920.56;;;9.90;56.65
37972;BME280;23794;48.234;8.344;2023-06-14T04:49:29;93923.69;;;9.85;56.37
37972;BME280;23794;48.234;8.344;2023-06-14T04:51:58;93922.09;;;9.91;56.60
37972;BME280;23794;48.234;8.344;2023-06-14T04:54:28;93925.97;;;9.97;57.02
37972;BME280;23794;48.234;8.344;2023-06-14T04:56:58;93918.53;;;9.94;58.02
37972;BME280;23794;48.234;8.344;2023-06-14T04:59:26;93921.97;;;10.05;57.04
37972;BME280;23794;48.234;8.344;2023-06-14T05:01:53;93921.47;;;10.18;57.44
37972;BME280;23794;48.234;8.344;2023-06-14T05:04:21;93937.09;;;10.21;57.54
37972;BME280;23794;48.234;8.344;2023-06-14T05:06:49;93924.19;;;10.21;57.99
37972;BME280;23794;48.234;8.344;2023-06-14T05:09:17;93920.59;;;10.28;56.96
37972;BME280;23794;48.234;8.344;2023-06-14T05:11:44;93922.84;;;10.37;57.36
37972;BME280;23794;48.234;8.344;2023-06-14T05:14:11;93918.38;;;10.54;57.88
37972;BME280;23794;48.234;8.344;2023-06-14T05:16:39;93921.06;;;10.57;58.38
37972;BME280;23794;48.234;8.344;2023-06-14T05:19:06;93918.69;;;10.63;56.89
37972;BME280;23794;48.234;8.344;2023-06-14T05:21:32;93921.66;;;10.76;56.76
37972;BME280;23794;48.234;8.344;2023-06-14T05:24:08;93923.19;;;10.81;57.98
37972;BME280;23794;48.234;8.344;2023-06-14T05:26:35;93921.50;;;10.91;58.11
37972;BME280;23794;48.234;8.344;2023-06-14T05:29:02;93928.06;;;11.00;58.46
37972;BME280;23794;48.234;8.344;2023-06-14T05:31:30;93922.41;;;11.15;58.11
37972;BME280;23794;48.234;8.344;2023-06-14T05:33:57;93925.38;;;11.28;58.10
37972;BME280;23794;48.234;8.344;2023-06-14T05:36:24;93940.91;;;11.38;57.50
37972;BME280;23794;48.234;8.344;2023-06-14T05:38:51;93938.72;;;11.53;56.74
37972;BME280;23794;48.234;8.344;2023-06-14T05:41:26;93944.84;;;11.64;56.50
37972;BME280;23794;48.234;8.344;2023-06-14T05:43:54;93936.63;;;11.88;54.61
37972;BME280;23794;48.234;8.344;2023-06-14T05:46:23;93937.63;;;12.02;55.42
37972;BME280;23794;48.234;8.344;2023-06-14T05:48:54;93934.97;;;12.18;54.93
37972;BME280;23794;48.234;8.344;2023-06-14T05:51:22;93935.09;;;12.35;54.88
37972;BME280;23794;48.234;8.344;2023-06-14T05:53:52;93938.22;;;12.60;52.75
37972;BME280;23794;48.234;8.344;2023-06-14T05:56:19;93934.72;;;12.80;52.47
37972;BME280;23794;48.234;8.344;2023-06-14T05:58:46;93939.53;;;12.96;51.73
37972;BME280;23794;48.234;8.344;2023-06-14T06:01:14;93941.91;;;13.14;50.88
37972;BME280;23794;48.234;8.344;2023-06-14T06:03:41;93937.16;;;13.35;50.55
37972;BME280;23794;48.234;8.344;2023-06-14T06:06:12;93936.16;;;13.45;51.89
37972;BME280;23794;48.234;8.344;2023-06-14T06:08:39;93935.16;;;13.55;51.89
37972;BME280;23794;48.234;8.344;2023-06-14T06:11:06;93944.66;;;13.71;50.42
37972;BME280;23794;48.234;8.344;2023-06-14T06:13:33;93947.44;;;13.87;49.95
37972;BME280;23794;48.234;8.344;2023-06-14T06:16:02;93945.91;;;14.03;49.46
37972;BME280;23794;48.234;8.344;2023-06-14T06:18:29;93940.16;;;14.14;47.92
37972;BME280;23794;48.234;8.344;2023-06-14T06:20:56;93932.81;;;14.24;47.94
37972;BME280;23794;48.234;8.344;2023-06-14T06:23:22;93939.09;;;14.41;45.59
37972;BME280;23794;48.234;8.344;2023-06-14T06:25:49;93941.91;;;14.53;46.34
37972;BME280;23794;48.234;8.344;2023-06-14T06:28:16;93947.59;;;14.63;45.82
37972;BME280;23794;48.234;8.344;2023-06-14T06:30:43;93953.41;;;14.81;43.48
37972;BME280;23794;48.234;8.344;2023-06-14T06:33:09;93945.09;;;14.98;43.56
37972;BME280;23794;48.234;8.344;2023-06-14T06:35:37;93947.59;;;15.22;43.70
37972;BME280;23794;48.234;8.344;2023-06-14T06:38:03;93946.00;;;15.37;41.95
37972;BME280;23794;48.234;8.344;2023-06-14T06:40:30;93949.44;;;15.54;41.25
37972;BME280;23794;48.234;8.344;2023-06-14T06:42:57;93951.03;;;15.81;41.09
37972;BME280;23794;48.234;8.344;2023-06-14T06:45:26;93951.59;;;16.02;39.22
37972;BME280;23794;48.234;8.344;2023-06-14T06:47:52;93949.91;;;16.30;37.99
37972;BME280;23794;48.234;8.344;2023-06-14T06:50:19;93950.97;;;16.58;38.85
37972;BME280;23794;48.234;8.344;2023-06-14T06:52:46;93957.44;;;16.78;38.41
37972;BME280;23794;48.234;8.344;2023-06-14T06:55:13;93952.44;;;16.85;37.61
37972;BME280;23794;48.234;8.344;2023-06-14T06:57:40;93954.22;;;16.79;39.01
37972;BME280;23794;48.234;8.344;2023-06-14T07:00:07;93960.38;;;16.96;37.49
37972;BME280;23794;48.234;8.344;2023-06-14T07:02:36;93957.91;;;17.11;38.69
37972;BME280;23794;48.234;8.344;2023-06-14T07:05:03;93956.94;;;17.27;37.87
37972;BME280;23794;48.234;8.344;2023-06-14T07:07:30;93959.25;;;17.29;36.81
37972;BME280;23794;48.234;8.344;2023-06-14T07:09:57;93952.34;;;17.33;36.77
37972;BME280;23794;48.234;8.344;2023-06-14T07:12:24;93957.19;;;17.42;36.92
37972;BME280;23794;48.234;8.344;2023-06-14T07:14:51;93960.19;;;17.57;38.11
37972;BME280;23794;48.234;8.344;2023-06-14T07:17:17;93958.91;;;17.71;34.90
37972;BME280;23794;48.234;8.344;2023-06-14T07:19:44;93951.72;;;17.83;35.05
37972;BME280;23794;48.234;8.344;2023-06-14T07:22:13;93965.88;;;17.85;33.86
37972;BME280;23794;48.234;8.344;2023-06-14T07:24:40;93966.06;;;17.91;33.89
37972;BME280;23794;48.234;8.344;2023-06-14T07:27:09;93963.03;;;17.98;33.64
37972;BME280;23794;48.234;8.344;2023-06-14T07:29:38;93964.91;;;18.01;33.33
37972;BME280;23794;48.234;8.344;2023-06-14T07:32:05;93959.69;;;18.03;34.45
37972;BME280;23794;48.234;8.344;2023-06-14T07:34:32;93967.72;;;18.10;34.31
37972;BME280;23794;48.234;8.344;2023-06-14T07:36:58;93976.63;;;18.05;34.73
37972;BME280;23794;48.234;8.344;2023-06-14T07:39:25;93967.31;;;18.21;35.75
37972;BME280;23794;48.234;8.344;2023-06-14T07:41:52;93969.03;;;18.37;33.87
37972;BME280;23794;48.234;8.344;2023-06-14T07:44:19;93967.03;;;18.38;33.90
37972;BME280;23794;48.234;8.344;2023-06-14T07:46:45;93968.63;;;18.57;34.27
37972;BME280;23794;48.234;8.344;2023-06-14T07:49:15;93971.91;;;18.84;33.73
37972;BME280;23794;48.234;8.344;2023-06-14T07:51:42;93968.06;;;18.90;34.14
37972;BME280;23794;48.234;8.344;2023-06-14T07:54:10;93970.41;;;19.01;33.34
37972;BME280;23794;48.234;8.344;2023-06-14T07:56:37;93964.72;;;19.05;33.60
37972;BME280;23794;48.234;8.344;2023-06-14T07:59:10;93965.16;;;19.22;33.01
37972;BME280;23794;48.234;8.344;2023-06-14T08:01:36;93965.16;;;19.22;32.34
37972;BME280;23794;48.234;8.344;2023-06-14T08:04:03;93973.19;;;19.38;31.97
37972;BME280;23794;48.234;8.344;2023-06-14T08:06:30;93973.78;;;19.33;31.91
37972;BME280;23794;48.234;8.344;2023-06-14T08:08:57;93961.13;;;19.32;32.34
37972;BME280;23794;48.234;8.344;2023-06-14T08:11:24;93967.91;;;19.40;31.05
37972;BME280;23794;48.234;8.344;2023-06-14T08:13:50;93964.31;;;19.58;31.68
37972;BME280;23794;48.234;8.344;2023-06-14T08:16:17;93973.88;;;19.85;31.81
37972;BME280;23794;48.234;8.344;2023-06-14T08:18:44;93969.38;;;19.97;30.67
37972;BME280;23794;48.234;8.344;2023-06-14T08:21:11;93969.84;;;19.96;31.94
37972;BME280;23794;48.234;8.344;2023-06-14T08:23:37;93969.69;;;19.99;31.67
37972;BME280;23794;48.234;8.344;2023-06-14T08:26:04;93963.34;;;19.99;31.46
37972;BME280;23794;48.234;8.344;2023-06-14T08:28:31;93970.06;;;20.16;30.56
37972;BME280;23794;48.234;8.344;2023-06-14T08:30:58;93970.38;;;20.18;28.24
37972;BME280;23794;48.234;8.344;2023-06-14T08:33:24;93975.28;;;20.24;27.52
37972;BME280;23794;48.234;8.344;2023-06-14T08:35:51;93968.75;;;20.36;28.46
37972;BME280;23794;48.234;8.344;2023-06-14T08:38:18;93972.69;;;20.53;27.45
37972;BME280;23794;48.234;8.344;2023-06-14T08:40:48;93976.50;;;20.65;27.10
37972;BME280;23794;48.234;8.344;2023-06-14T08:43:16;93978.16;;;20.72;27.23
37972;BME280;23794;48.234;8.344;2023-06-14T08:45:45;93969.81;;;20.38;26.83
37972;BME280;23794;48.234;8.344;2023-06-14T08:48:13;93972.72;;;20.44;27.68
37972;BME280;23794;48.234;8.344;2023-06-14T08:50:44;93983.81;;;20.53;26.92
37972;BME280;23794;48.234;8.344;2023-06-14T08:53:13;93986.75;;;20.16;26.72
37972;BME280;23794;48.234;8.344;2023-06-14T08:55:42;93976.13;;;20.15;27.02
37972;BME280;23794;48.234;8.344;2023-06-14T08:58:09;93980.25;;;20.19;26.99
37972;BME280;23794;48.234;8.344;2023-06-14T09:00:40;93978.56;;;20.22;26.60
37972;BME280;23794;48.234;8.344;2023-06-14T09:03:09;93983.97;;;20.50;26.49
37972;BME280;23794;48.234;8.344;2023-06-14T09:05:40;93987.47;;;20.69;26.75
37972;BME280;23794;48.234;8.344;2023-06-14T09:08:06;93985.03;;;20.86;25.94
37972;BME280;23794;48.234;8.344;2023-06-14T09:10:34;93984.38;;;20.91;25.74
37972;BME280;23794;48.234;8.344;2023-06-14T09:13:04;94003.28;;;20.87;24.98
37972;BME280;23794;48.234;8.344;2023-06-14T09:15:31;93998.28;;;20.67;25.68
37972;BME280;23794;48.234;8.344;2023-06-14T09:18:01;93989.81;;;20.61;26.50
37972;BME280;23794;48.234;8.344;2023-06-14T09:20:29;93990.81;;;20.73;27.43
37972;BME280;23794;48.234;8.344;2023-06-14T09:23:01;94007.25;;;20.71;26.32
37972;BME280;23794;48.234;8.344;2023-06-14T09:25:29;94010.50;;;20.94;26.77
37972;BME280;23794;48.234;8.344;2023-06-14T09:27:58;93997.38;;;21.34;27.27
37972;BME280;23794;48.234;8.344;2023-06-14T09:30:25;93999.06;;;20.92;26.20
37972;BME280;23794;48.234;8.344;2023-06-14T09:32:52;93991.59;;;20.98;24.55
37972;BME280;23794;48.234;8.344;2023-06-14T09:35:20;93996.16;;;21.10;25.83
37972;BME280;23794;48.234;8.344;2023-06-14T09:37:47;93983.09;;;21.41;25.44
37972;BME280;23794;48.234;8.344;2023-06-14T09:40:20;93995.63;;;21.60;25.51
37972;BME280;23794;48.234;8.344;2023-06-14T09:42:47;93994.09;;;21.74;25.73
37972;BME280;23794;48.234;8.344;2023-06-14T09:45:14;93997.94;;;21.77;26.02
37972;BME280;23794;48.234;8.344;2023-06-14T09:47:46;93995.25;;;21.83;25.47
37972;BME280;23794;48.234;8.344;2023-06-14T09:50:30;94000.72;;;22.07;25.09
37972;BME280;23794;48.234;8.344;2023-06-14T09:53:06;94002.19;;;21.87;26.99
37972;BME280;23794;48.234;8.344;2023-06-14T09:55:35;94011.78;;;22.16;26.86
37972;BME280;23794;48.234;8.344;2023-06-14T09:58:07;93995.53;;;22.15;25.97
37972;BME280;23794;48.234;8.344;2023-06-14T10:00:36;93998.34;;;22.15;26.00
37972;BME280;23794;48.234;8.344;2023-06-14T10:03:16;93995.75;;;22.26;26.45
37972;BME280;23794;48.234;8.344;2023-06-14T10:05:48;93991.56;;;22.51;25.92
37972;BME280;23794;48.234;8.344;2023-06-14T10:08:19;94001.66;;;22.64;26.18
37972;BME280;23794;48.234;8.344;2023-06-14T10:10:46;93998.81;;;22.28;26.12
37972;BME280;23794;48.234;8.344;2023-06-14T10:13:14;93993.28;;;22.49;26.79
37972;BME280;23794;48.234;8.344;2023-06-14T10:16:01;94004.09;;;22.41;26.17
37972;BME280;23794;48.234;8.344;2023-06-14T10:18:46;93994.09;;;22.19;26.83
37972;BME280;23794;48.234;8.344;2023-06-14T10:23:45;93996.19;;;22.39;27.12
37972;BME280;23794;48.234;8.344;2023-06-14T10:26:23;93992.75;;;22.45;27.04
37972;BME280;23794;48.234;8.344;2023-06-14T10:29:00;93986.50;;;22.70;26.63
37972;BME280;23794;48.234;8.344;2023-06-14T10:31:48;93988.75;;;22.87;26.53
37972;BME280;23794;48.234;8.344;2023-06-14T10:34:30;93976.22;;;23.18;26.75
37972;BME280;23794;48.234;8.344;2023-06-14T10:37:05;93981.22;;;23.55;26.45
37972;BME280;23794;48.234;8.344;2023-06-14T10:39:39;93967.56;;;23.63;25.25
37972;BME280;23794;48.234;8.344;2023-06-14T10:42:07;93982.53;;;23.60;25.90
37972;BME280;23794;48.234;8.344;2023-06-14T10:47:10;93978.69;;;23.57;25.91
37972;BME280;23794;48.234;8.344;2023-06-14T10:49:43;93988.16;;;23.86;25.45
37972;BME280;23794;48.234;8.344;2023-06-14T10:52:15;93985.22;;;23.75;25.64
37972;BME280;23794;48.234;8.344;2023-06-14T10:55:08;93976.59;;;23.73;25.33
37972;BME280;23794;48.234;8.344;2023-06-14T10:57:52;93974.47;;;23.94;25.75
37972;BME280;23794;48.234;8.344;2023-06-14T11:00:24;93976.44;;;24.14;25.24
37972;BME280;23794;48.234;8.344;2023-06-14T11:05:58;93987.75;;;23.05;25.47
37972;BME280;23794;48.234;8.344;2023-06-14T11:08:39;93974.19;;;22.98;26.06
37972;BME280;23794;48.234;8.344;2023-06-14T11:11:08;93980.47;;;23.34;25.73
37972;BME280;23794;48.234;8.344;2023-06-14T11:13:39;93979.72;;;23.80;24.90
37972;BME280;23794;48.234;8.344;2023-06-14T11:16:17;93979.34;;;23.46;25.92
37972;BME280;23794;48.234;8.344;2023-06-14T11:18:45;93972.09;;;23.81;25.70
37972;BME280;23794;48.234;8.344;2023-06-14T11:21:16;93970.19;;;23.98;24.81
37972;BME280;23794;48.234;8.344;2023-06-14T11:23:52;93973.41;;;23.39;25.94
37972;BME280;23794;48.234;8.344;2023-06-14T11:26:31;93972.31;;;24.09;25.33
37972;BME280;23794;48.234;8.344;2023-06-14T11:29:01;93970.69;;;24.55;24.60
37972;BME280;23794;48.234;8.344;2023-06-14T11:31:29;93969.63;;;24.96;24.76
37972;BME280;23794;48.234;8.344;2023-06-14T11:33:59;93971.06;;;25.35;23.06
37972;BME280;23794;48.234;8.344;2023-06-14T11:36:27;93965.72;;;25.31;23.24
37972;BME280;23794;48.234;8.344;2023-06-14T11:39:01;93970.94;;;24.25;24.63
37972;BME280;23794;48.234;8.344;2023-06-14T11:41:33;93967.16;;;23.70;25.60
37972;BME280;23794;48.234;8.344;2023-06-14T11:44:01;93973.13;;;24.15;25.07
37972;BME280;23794;48.234;8.344;2023-06-14T11:46:28;93970.53;;;24.38;24.92
37972;BME280;23794;48.234;8.344;2023-06-14T11:48:54;93956.41;;;25.02;24.51
37972;BME280;23794;48.234;8.344;2023-06-14T11:51:21;93955.81;;;25.36;23.36
37972;BME280;23794;48.234;8.344;2023-06-14T11:53:48;93950.53;;;25.61;23.51
37972;BME280;23794;48.234;8.344;2023-06-14T11:56:15;93952.34;;;25.86;23.84
37972;BME280;23794;48.234;8.344;2023-06-14T11:58:43;93948.66;;;24.74;24.90
37972;BME280;23794;48.234;8.344;2023-06-14T12:01:14;93972.50;;;23.27;26.52
37972;BME280;23794;48.234;8.344;2023-06-14T12:03:53;93967.09;;;23.44;26.50
37972;BME280;23794;48.234;8.344;2023-06-14T12:06:28;93953.78;;;24.44;25.31
37972;BME280;23794;48.234;8.344;2023-06-14T12:08:56;93948.59;;;25.12;24.26
37972;BME280;23794;48.234;8.344;2023-06-14T12:11:23;93945.41;;;25.65;23.75
37972;BME280;23794;48.234;8.344;2023-06-14T12:13:50;93946.69;;;25.69;23.77
37972;BME280;23794;48.234;8.344;2023-06-14T12:16:17;93945.47;;;25.87;23.96
37972;BME280;23794;48.234;8.344;2023-06-14T12:18:43;93945.50;;;26.16;22.86
37972;BME280;23794;48.234;8.344;2023-06-14T12:21:11;93946.25;;;25.88;22.95
37972;BME280;23794;48.234;8.344;2023-06-14T12:23:48;93943.19;;;25.80;22.55
37972;BME280;23794;48.234;8.344;2023-06-14T12:26:24;93937.06;;;25.76;23.02
37972;BME280;23794;48.234;8.344;2023-06-14T12:28:52;93936.66;;;25.23;22.86
37972;BME280;23794;48.234;8.344;2023-06-14T12:31:19;93947.97;;;25.68;23.38
37972;BME280;23794;48.234;8.344;2023-06-14T12:33:46;93940.81;;;25.67;22.52
37972;BME280;23794;48.234;8.344;2023-06-14T12:36:16;93940.84;;;25.73;22.87
37972;BME280;23794;48.234;8.344;2023-06-14T12:38:43;93946.19;;;24.99;22.72
37972;BME280;23794;48.234;8.344;2023-06-14T12:41:12;93949.91;;;25.22;23.19
37972;BME280;23794;48.234;8.344;2023-06-14T12:43:41;93955.63;;;25.68;22.79
37972;BME280;23794;48.234;8.344;2023-06-14T12:46:08;93950.84;;;25.80;23.08
37972;BME280;23794;48.234;8.344;2023-06-14T12:48:35;93954.03;;;25.38;23.38
37972;BME280;23794;48.234;8.344;2023-06-14T12:51:03;93958.47;;;25.79;22.65
37972;BME280;23794;48.234;8.344;2023-06-14T12:53:30;93951.09;;;26.39;21.97
37972;BME280;23794;48.234;8.344;2023-06-14T12:55:57;93946.50;;;26.18;22.18
37972;BME280;23794;48.234;8.344;2023-06-14T12:58:24;93952.59;;;26.79;22.25
37972;BME280;23794;48.234;8.344;2023-06-14T13:00:51;93951.56;;;26.82;21.13
37972;BME280;23794;48.234;8.344;2023-06-14T13:03:18;93955.66;;;26.76;21.31
37972;BME280;23794;48.234;8.344;2023-06-14T13:05:45;93956.34;;;27.05;21.01
37972;BME280;23794;48.234;8.344;2023-06-14T13:08:12;93955.69;;;26.36;21.39
37972;BME280;23794;48.234;8.344;2023-06-14T13:10:40;93953.91;;;26.04;21.86
37972;BME280;23794;48.234;8.344;2023-06-14T13:13:07;93944.16;;;26.74;21.75
37972;BME280;23794;48.234;8.344;2023-06-14T13:15:34;93945.34;;;27.01;21.23
37972;BME280;23794;48.234;8.344;2023-06-14T13:18:01;93942.44;;;27.35;21.10
37972;BME280;23794;48.234;8.344;2023-06-14T13:20:30;93933.25;;;27.35;20.83
37972;BME280;23794;48.234;8.344;2023-06-14T13:22:59;93940.91;;;27.34;20.37
37972;BME280;23794;48.234;8.344;2023-06-14T13:25:26;93932.63;;;27.53;19.91
37972;BME280;23794;48.234;8.344;2023-06-14T13:27:53;93938.94;;;27.18;20.19
37972;BME280;23794;48.234;8.344;2023-06-14T13:30:20;93932.34;;;27.09;20.88